sensor_id;sensor_type;location;lat;lon;timestamp;temperature;humidity
13205;DHT22;6667;52.634;9.226;2023-06-10T05:44:55;14.30;99.90
13205;DHT22;6667;52.634;9.226;2023-06-10T05:47:23;14.30;99.90
13205;DHT22;6667;52.634;9.226;2023-06-10T05:49:51;14.10;99.90
13205;DHT22;6667;52.634;9.226;2023-06-10T05:52:18;14.10;99.90
13205;DHT22;6667;52.634;9.226;2023-06-10T05:54:45;14.40;99.90
13205;DHT22;6667;52.634;9.226;2023-06-10T05:57:13;14.70;99.90
13205;DHT22;6667;52.634;9.226;2023-06-10T05:59:40;14.70;99.90
13205;DHT22;6667;52.634;9.226;2023-06-10T06:02:08;14.70;99.90
13205;DHT22;6667;52.634;9.226;2023-06-10T06:04:35;14.70;99.90
13205;DHT22;6667;52.634;9.226;2023-06-10T06:07:02;14.60;99.90
13205;DHT22;6667;52.634;9.226;2023-06-10T06:09:30;14.20;99.90
13205;DHT22;6667;52.634;9.226;2023-06-10T06:12:08;14.50;99.90
13205;DHT22;6667;52.634;9.226;2023-06-10T06:14:49;14.50;99.90
13205;DHT22;6667;52.634;9.226;2023-06-10T06:17:20;14.70;99.90
13205;DHT22;6667;52.634;9.226;2023-06-10T06:19:47;14.80;1.00
13205;DHT22;6667;52.634;9.226;2023-06-10T06:22:15;15.00;1.00
13205;DHT22;6667;52.634;9.226;2023-06-10T06:25:05;15.40;99.90
13205;DHT22;6667;52.634;9.226;2023-06-10T06:27:40;15.40;99.90
13205;DHT22;6667;52.634;9.226;2023-06-10T06:30:16;15.40;99.90
13205;DHT22;6667;52.634;9.226;2023-06-10T06:32:49;15.60;99.90
13205;DHT22;6667;52.634;9.226;2023-06-10T06:35:17;15.60;99.90
13205;DHT22;6667;52.634;9.226;2023-06-10T06:37:54;15.90;99.90
13205;DHT22;6667;52.634;9.226;2023-06-10T06:40:33;16.00;99.90
13205;DHT22;6667;52.634;9.226;2023-06-10T06:43:14;15.90;99.90
13205;DHT22;6667;52.634;9.226;2023-06-10T06:45:43;16.10;99.90
13205;DHT22;6667;52.634;9.226;2023-06-10T06:48:27;16.10;99.90
13205;DHT22;6667;52.634;9.226;2023-06-10T06:51:11;16.30;99.90
13205;DHT22;6667;52.634;9.226;2023-06-10T06:53:38;16.40;99.90
13205;DHT22;6667;52.634;9.226;2023-06-10T06:56:16;16.30;99.90
13205;DHT22;6667;52.634;9.226;2023-06-10T06:58:43;16.70;99.90
13205;DHT22;6667;52.634;9.226;2023-06-10T07:01:10;18.20;99.90
13205;DHT22;6667;52.634;9.226;2023-06-10T07:03:39;18.70;99.90
13205;DHT22;6667;52.634;9.226;2023-06-10T07:06:06;18.70;99.90
13205;DHT22;6667;52.634;9.226;2023-06-10T07:08:34;18.10;99.90
13205;DHT22;6667;52.634;9.226;2023-06-10T07:11:02;18.40;99.90
13205;DHT22;6667;52.634;9.226;2023-06-10T07:13:29;18.90;99.90
13205;DHT22;6667;52.634;9.226;2023-06-10T07:16:00;19.00;99.90
13205;DHT22;6667;52.634;9.226;2023-06-10T07:18:31;19.10;99.90
13205;DHT22;6667;52.634;9.226;2023-06-10T07:21:00;19.70;99.90
13205;DHT22;6667;52.634;9.226;2023-06-10T07:25:55;21.10;99.90
13205;DHT22;6667;52.634;9.226;2023-06-10T07:28:23;21.60;99.90
13205;DHT22;6667;52.634;9.226;2023-06-10T07:30:52;22.00;99.90
13205;DHT22;6667;52.634;9.226;2023-06-10T07:33:20;22.20;99.90
13205;DHT22;6667;52.634;9.226;2023-06-10T07:35:47;21.50;99.90
13205;DHT22;6667;52.634;9.226;2023-06-10T07:38:18;21.50;99.90
13205;DHT22;6667;52.634;9.226;2023-06-10T07:40:45;22.80;99.90
13205;DHT22;6667;52.634;9.226;2023-06-10T07:43:14;22.70;99.90
13205;DHT22;6667;52.634;9.226;2023-06-10T07:45:41;23.10;99.90
13205;DHT22;6667;52.634;9.226;2023-06-10T07:48:10;23.40;99.90
13205;DHT22;6667;52.634;9.226;2023-06-10T07:50:38;24.40;99.90
13205;DHT22;6667;52.634;9.226;2023-06-10T07:53:07;24.40;99.90
13205;DHT22;6667;52.634;9.226;2023-06-10T07:55:38;24.40;99.90
13205;DHT22;6667;52.634;9.226;2023-06-10T07:58:06;24.80;99.90
13205;DHT22;6667;52.634;9.226;2023-06-10T08:00:34;25.20;99.90
13205;DHT22;6667;52.634;9.226;2023-06-10T08:03:02;24.90;99.90
13205;DHT22;6667;52.634;9.226;2023-06-10T08:05:29;25.20;99.90
13205;DHT22;6667;52.634;9.226;2023-06-10T08:07:56;25.10;99.90
13205;DHT22;6667;52.634;9.226;2023-06-10T08:10:24;25.10;99.90
13205;DHT22;6667;52.634;9.226;2023-06-10T08:12:54;25.60;99.90
13205;DHT22;6667;52.634;9.226;2023-06-10T08:15:20;26.10;99.90
13205;DHT22;6667;52.634;9.226;2023-06-10T08:17:47;25.50;99.90
13205;DHT22;6667;52.634;9.226;2023-06-10T08:20:15;25.70;99.90
13205;DHT22;6667;52.634;9.226;2023-06-10T08:22:44;26.70;99.90
13205;DHT22;6667;52.634;9.226;2023-06-10T08:25:12;26.70;99.90
13205;DHT22;6667;52.634;9.226;2023-06-10T08:27:41;26.80;99.90
13205;DHT22;6667;52.634;9.226;2023-06-10T08:30:13;27.30;99.90
13205;DHT22;6667;52.634;9.226;2023-06-10T08:32:41;27.80;99.90
13205;DHT22;6667;52.634;9.226;2023-06-10T08:35:08;27.70;99.90
13205;DHT22;6667;52.634;9.226;2023-06-10T08:37:35;27.80;99.90
13205;DHT22;6667;52.634;9.226;2023-06-10T08:40:03;28.80;99.90
13205;DHT22;6667;52.634;9.226;2023-06-10T08:42:34;28.40;99.90
13205;DHT22;6667;52.634;9.226;2023-06-10T08:45:05;29.10;99.90
13205;DHT22;6667;52.634;9.226;2023-06-10T08:47:39;29.60;99.90
13205;DHT22;6667;52.634;9.226;2023-06-10T08:50:09;29.60;99.90
13205;DHT22;6667;52.634;9.226;2023-06-10T08:52:37;29.90;99.90
13205;DHT22;6667;52.634;9.226;2023-06-10T08:55:11;30.00;99.90
13205;DHT22;6667;52.634;9.226;2023-06-10T08:57:39;29.90;99.90
13205;DHT22;6667;52.634;9.226;2023-06-10T09:00:09;30.10;99.90
13205;DHT22;6667;52.634;9.226;2023-06-10T09:03:12;30.40;99.90
13205;DHT22;6667;52.634;9.226;2023-06-10T09:05:41;30.10;99.90
13205;DHT22;6667;52.634;9.226;2023-06-10T09:08:09;31.00;99.90
13205;DHT22;6667;52.634;9.226;2023-06-10T09:10:36;31.10;99.90
13205;DHT22;6667;52.634;9.226;2023-06-10T09:13:03;30.60;99.90
13205;DHT22;6667;52.634;9.226;2023-06-10T09:15:30;30.30;99.90
13205;DHT22;6667;52.634;9.226;2023-06-10T09:17:57;30.40;99.90
13205;DHT22;6667;52.634;9.226;2023-06-10T09:20:29;30.40;99.90
13205;DHT22;6667;52.634;9.226;2023-06-10T09:22:56;29.90;99.90
13205;DHT22;6667;52.634;9.226;2023-06-10T09:25:35;29.80;99.90
13205;DHT22;6667;52.634;9.226;2023-06-10T09:28:04;30.90;99.90
13205;DHT22;6667;52.634;9.226;2023-06-10T09:30:32;31.40;99.90
13205;DHT22;6667;52.634;9.226;2023-06-10T09:33:01;31.60;99.90
13205;DHT22;6667;52.634;9.226;2023-06-10T09:35:31;31.70;99.90
13205;DHT22;6667;52.634;9.226;2023-06-10T09:38:00;32.10;99.90
13205;DHT22;6667;52.634;9.226;2023-06-10T09:40:29;30.90;99.90
13205;DHT22;6667;52.634;9.226;2023-06-10T09:42:57;31.60;99.90
13205;DHT22;6667;52.634;9.226;2023-06-10T09:45:29;31.80;99.90
13205;DHT22;6667;52.634;9.226;2023-06-10T09:47:58;31.80;99.90
13205;DHT22;6667;52.634;9.226;2023-06-10T09:50:48;31.30;99.90
13205;DHT22;6667;52.634;9.226;2023-06-10T09:53:28;31.10;99.90
13205;DHT22;6667;52.634;9.226;2023-06-10T09:56:00;31.90;99.90
13205;DHT22;6667;52.634;9.226;2023-06-10T09:58:35;31.60;99.90
13205;DHT22;6667;52.634;9.226;2023-06-10T10:01:05;31.50;99.90
13205;DHT22;6667;52.634;9.226;2023-06-10T10:03:33;32.00;99.90
13205;DHT22;6667;52.634;9.226;2023-06-10T10:06:01;31.70;99.90
13205;DHT22;6667;52.634;9.226;2023-06-10T10:08:30;32.20;99.90
13205;DHT22;6667;52.634;9.226;2023-06-10T10:10:58;32.30;99.90
13205;DHT22;6667;52.634;9.226;2023-06-10T10:13:28;31.80;99.90
13205;DHT22;6667;52.634;9.226;2023-06-10T10:15:57;32.60;99.90
13205;DHT22;6667;52.634;9.226;2023-06-10T10:18:29;32.70;99.90
13205;DHT22;6667;52.634;9.226;2023-06-10T10:21:02;32.40;99.90
13205;DHT22;6667;52.634;9.226;2023-06-10T10:23:39;33.30;99.90
13205;DHT22;6667;52.634;9.226;2023-06-10T10:26:10;33.80;99.90
13205;DHT22;6667;52.634;9.226;2023-06-10T10:28:42;31.70;99.90
13205;DHT22;6667;52.634;9.226;2023-06-10T10:31:13;32.10;99.90
13205;DHT22;6667;52.634;9.226;2023-06-10T10:33:52;31.90;99.90
13205;DHT22;6667;52.634;9.226;2023-06-10T10:36:22;32.00;99.90
13205;DHT22;6667;52.634;9.226;2023-06-10T10:38:50;31.30;99.90
13205;DHT22;6667;52.634;9.226;2023-06-10T10:41:19;30.90;99.90
13205;DHT22;6667;52.634;9.226;2023-06-10T10:43:48;31.80;99.90
13205;DHT22;6667;52.634;9.226;2023-06-10T10:46:17;32.00;99.90
13205;DHT22;6667;52.634;9.226;2023-06-10T10:48:44;32.70;99.90
13205;DHT22;6667;52.634;9.226;2023-06-10T10:51:15;32.80;99.90
13205;DHT22;6667;52.634;9.226;2023-06-10T10:53:43;32.90;99.90
13205;DHT22;6667;52.634;9.226;2023-06-10T10:56:15;33.20;99.90
13205;DHT22;6667;52.634;9.226;2023-06-10T10:59:02;33.20;99.90
13205;DHT22;6667;52.634;9.226;2023-06-10T11:01:40;32.90;99.90
13205;DHT22;6667;52.634;9.226;2023-06-10T11:04:07;33.40;99.90
13205;DHT22;6667;52.634;9.226;2023-06-10T11:06:35;33.20;99.90
13205;DHT22;6667;52.634;9.226;2023-06-10T11:09:26;33.10;99.90
13205;DHT22;6667;52.634;9.226;2023-06-10T11:11:57;32.60;99.90
13205;DHT22;6667;52.634;9.226;2023-06-10T11:14:29;33.00;99.90
13205;DHT22;6667;52.634;9.226;2023-06-10T11:16:58;32.60;99.90
13205;DHT22;6667;52.634;9.226;2023-06-10T11:19:38;32.80;99.90
13205;DHT22;6667;52.634;9.226;2023-06-10T11:22:27;32.40;99.90
13205;DHT22;6667;52.634;9.226;2023-06-10T11:24:58;32.90;99.90
13205;DHT22;6667;52.634;9.226;2023-06-10T11:27:26;33.10;99.90
13205;DHT22;6667;52.634;9.226;2023-06-10T11:30:20;33.30;99.90
13205;DHT22;6667;52.634;9.226;2023-06-10T11:32:51;33.70;99.90
13205;DHT22;6667;52.634;9.226;2023-06-10T11:35:26;32.90;99.90
13205;DHT22;6667;52.634;9.226;2023-06-10T11:38:11;33.20;99.90
13205;DHT22;6667;52.634;9.226;2023-06-10T11:40:48;32.90;99.90
13205;DHT22;6667;52.634;9.226;2023-06-10T11:43:17;32.00;99.90
13205;DHT22;6667;52.634;9.226;2023-06-10T11:45:53;32.40;99.90
13205;DHT22;6667;52.634;9.226;2023-06-10T11:48:22;31.70;99.90
13205;DHT22;6667;52.634;9.226;2023-06-10T11:50:53;30.90;99.90
13205;DHT22;6667;52.634;9.226;2023-06-10T11:53:21;31.10;99.90
13205;DHT22;6667;52.634;9.226;2023-06-10T11:59:29;31.60;99.90
13205;DHT22;6667;52.634;9.226;2023-06-10T12:02:20;31.90;99.90
13205;DHT22;6667;52.634;9.226;2023-06-10T12:04:55;31.00;99.90
13205;DHT22;6667;52.634;9.226;2023-06-10T12:10:33;30.90;99.90
13205;DHT22;6667;52.634;9.226;2023-06-10T12:13:16;32.10;99.90
13205;DHT22;6667;52.634;9.226;2023-06-10T12:16:07;32.00;99.90
13205;DHT22;6667;52.634;9.226;2023-06-10T12:18:38;31.60;99.90
13205;DHT22;6667;52.634;9.226;2023-06-10T12:24:20;32.10;99.90
13205;DHT22;6667;52.634;9.226;2023-06-10T12:26:55;32.50;99.90
13205;DHT22;6667;52.634;9.226;2023-06-10T12:29:33;31.50;99.90
13205;DHT22;6667;52.634;9.226;2023-06-10T12:32:03;31.90;99.90
13205;DHT22;6667;52.634;9.226;2023-06-10T12:34:38;32.50;99.90
13205;DHT22;6667;52.634;9.226;2023-06-10T12:37:10;32.30;99.90
13205;DHT22;6667;52.634;9.226;2023-06-10T12:39:40;32.20;99.90
13205;DHT22;6667;52.634;9.226;2023-06-10T12:42:18;31.90;99.90
13205;DHT22;6667;52.634;9.226;2023-06-10T12:44:54;31.70;99.90
13205;DHT22;6667;52.634;9.226;2023-06-10T12:47:30;32.00;99.90
13205;DHT22;6667;52.634;9.226;2023-06-10T12:50:02;32.60;99.90
13205;DHT22;6667;52.634;9.226;2023-06-10T12:52:33;32.80;99.90
13205;DHT22;6667;52.634;9.226;2023-06-10T12:55:02;32.90;99.90
13205;DHT22;6667;52.634;9.226;2023-06-10T12:57:32;32.50;99.90
13205;DHT22;6667;52.634;9.226;2023-06-10T13:00:02;32.70;99.90
13205;DHT22;6667;52.634;9.226;2023-06-10T13:02:45;32.10;99.90
13205;DHT22;6667;52.634;9.226;2023-06-10T13:05:27;31.70;99.90
13205;DHT22;6667;52.634;9.226;2023-06-10T13:07:59;31.90;99.90
13205;DHT22;6667;52.634;9.226;2023-06-10T13:10:39;32.20;99.90
13205;DHT22;6667;52.634;9.226;2023-06-10T13:13:09;32.40;99.90
13205;DHT22;6667;52.634;9.226;2023-06-10T13:15:37;32.50;99.90
13205;DHT22;6667;52.634;9.226;2023-06-10T13:18:10;32.70;99.90
13205;DHT22;6667;52.634;9.226;2023-06-10T13:20:37;32.90;99.90
13205;DHT22;6667;52.634;9.226;2023-06-10T13:23:04;33.00;99.90
13205;DHT22;6667;52.634;9.226;2023-06-10T13:25:30;33.10;99.90
13205;DHT22;6667;52.634;9.226;2023-06-10T13:27:57;32.90;99.90
13205;DHT22;6667;52.634;9.226;2023-06-10T13:30:24;32.70;99.90
13205;DHT22;6667;52.634;9.226;2023-06-10T13:32:51;33.20;99.90
13205;DHT22;6667;52.634;9.226;2023-06-10T13:35:20;33.40;99.90
13205;DHT22;6667;52.634;9.226;2023-06-10T13:37:46;32.40;99.90
13205;DHT22;6667;52.634;9.226;2023-06-10T13:40:13;32.30;99.90
13205;DHT22;6667;52.634;9.226;2023-06-10T13:42:41;31.90;99.90
13205;DHT22;6667;52.634;9.226;2023-06-10T13:45:08;31.90;99.90
13205;DHT22;6667;52.634;9.226;2023-06-10T13:47:38;32.60;99.90
13205;DHT22;6667;52.634;9.226;2023-06-10T13:50:07;32.80;99.90
13205;DHT22;6667;52.634;9.226;2023-06-10T13:52:44;33.40;99.90
13205;DHT22;6667;52.634;9.226;2023-06-10T13:55:11;33.30;99.90
13205;DHT22;6667;52.634;9.226;2023-06-10T13:57:42;33.30;99.90
13205;DHT22;6667;52.634;9.226;2023-06-10T14:00:10;32.70;99.90
13205;DHT22;6667;52.634;9.226;2023-06-10T14:02:37;32.40;99.90
13205;DHT22;6667;52.634;9.226;2023-06-10T14:05:20;32.60;99.90
13205;DHT22;6667;52.634;9.226;2023-06-10T14:07:51;32.60;99.90
13205;DHT22;6667;52.634;9.226;2023-06-10T14:10:17;32.70;99.90
13205;DHT22;6667;52.634;9.226;2023-06-10T14:12:48;32.30;99.90
13205;DHT22;6667;52.634;9.226;2023-06-10T14:15:15;31.90;99.90
13205;DHT22;6667;52.634;9.226;2023-06-10T14:17:42;31.70;99.90
13205;DHT22;6667;52.634;9.226;2023-06-10T14:20:11;32.00;99.90
13205;DHT22;6667;52.634;9.226;2023-06-10T14:22:41;32.10;99.90
13205;DHT22;6667;52.634;9.226;2023-06-10T14:25:10;32.20;99.90
13205;DHT22;6667;52.634;9.226;2023-06-10T14:27:37;32.80;99.90
13205;DHT22;6667;52.634;9.226;2023-06-10T14:30:05;32.70;99.90
13205;DHT22;6667;52.634;9.226;2023-06-10T14:32:33;31.70;99.90
13205;DHT22;6667;52.634;9.226;2023-06-10T14:35:00;31.30;99.90
13205;DHT22;6667;52.634;9.226;2023-06-10T14:37:27;31.40;99.90
13205;DHT22;6667;52.634;9.226;2023-06-10T14:39:53;31.40;99.90
13205;DHT22;6667;52.634;9.226;2023-06-10T14:42:22;31.60;99.90
13205;DHT22;6667;52.634;9.226;2023-06-10T14:44:48;31.40;99.90
13205;DHT22;6667;52.634;9.226;2023-06-10T14:47:16;31.60;99.90
13205;DHT22;6667;52.634;9.226;2023-06-10T14:49:43;31.90;99.90
13205;DHT22;6667;52.634;9.226;2023-06-10T14:52:11;31.30;99.90
13205;DHT22;6667;52.634;9.226;2023-06-10T14:54:42;30.70;99.90
13205;DHT22;6667;52.634;9.226;2023-06-10T14:57:09;30.20;99.90
13205;DHT22;6667;52.634;9.226;2023-06-10T14:59:38;30.60;99.90
13205;DHT22;6667;52.634;9.226;2023-06-10T15:02:06;30.70;99.90
13205;DHT22;6667;52.634;9.226;2023-06-10T15:04:35;31.00;99.90
13205;DHT22;6667;52.634;9.226;2023-06-10T15:07:03;31.10;99.90
13205;DHT22;6667;52.634;9.226;2023-06-10T15:09:32;30.40;99.90
13205;DHT22;6667;52.634;9.226;2023-06-10T15:12:00;30.90;99.90
13205;DHT22;6667;52.634;9.226;2023-06-10T15:14:29;30.80;99.90
13205;DHT22;6667;52.634;9.226;2023-06-10T15:17:02;30.30;99.90
13205;DHT22;6667;52.634;9.226;2023-06-10T15:19:30;30.30;99.90
13205;DHT22;6667;52.634;9.226;2023-06-10T15:22:00;30.20;99.90
13205;DHT22;6667;52.634;9.226;2023-06-10T15:24:30;30.20;99.90
13205;DHT22;6667;52.634;9.226;2023-06-10T15:26:59;30.10;99.90
13205;DHT22;6667;52.634;9.226;2023-06-10T15:29:28;30.40;99.90
13205;DHT22;6667;52.634;9.226;2023-06-10T15:32:02;29.80;99.90
13205;DHT22;6667;52.634;9.226;2023-06-10T15:34:33;29.60;99.90
13205;DHT22;6667;52.634;9.226;2023-06-10T15:37:05;30.00;99.90
13205;DHT22;6667;52.634;9.226;2023-06-10T15:39:33;30.10;99.90
13205;DHT22;6667;52.634;9.226;2023-06-10T15:42:00;30.00;99.90
13205;DHT22;6667;52.634;9.226;2023-06-10T15:44:30;30.00;99.90
13205;DHT22;6667;52.634;9.226;2023-06-10T15:47:01;30.00;99.90
13205;DHT22;6667;52.634;9.226;2023-06-10T15:49:30;29.60;99.90
13205;DHT22;6667;52.634;9.226;2023-06-10T15:51:59;29.40;99.90
13205;DHT22;6667;52.634;9.226;2023-06-10T15:54:27;29.50;99.90
13205;DHT22;6667;52.634;9.226;2023-06-10T15:56:55;29.40;99.90
13205;DHT22;6667;52.634;9.226;2023-06-10T15:59:25;29.60;99.90
13205;DHT22;6667;52.634;9.226;2023-06-10T16:01:54;29.70;99.90
13205;DHT22;6667;52.634;9.226;2023-06-10T16:04:28;29.50;99.90
13205;DHT22;6667;52.634;9.226;2023-06-10T16:06:57;29.60;99.90
13205;DHT22;6667;52.634;9.226;2023-06-10T16:09:27;29.50;99.90
13205;DHT22;6667;52.634;9.226;2023-06-10T16:11:56;29.60;99.90
13205;DHT22;6667;52.634;9.226;2023-06-10T16:14:26;29.50;99.90
13205;DHT22;6667;52.634;9.226;2023-06-10T16:16:57;29.40;99.90
13205;DHT22;6667;52.634;9.226;2023-06-10T16:19:32;29.40;99.90
13205;DHT22;6667;52.634;9.226;2023-06-10T16:21:59;29.20;99.90
13205;DHT22;6667;52.634;9.226;2023-06-10T16:24:27;29.30;99.90
13205;DHT22;6667;52.634;9.226;2023-06-10T16:26:55;29.20;99.90
13205;DHT22;6667;52.634;9.226;2023-06-10T16:29:27;29.10;99.90
13205;DHT22;6667;52.634;9.226;2023-06-10T16:31:55;29.20;99.90
13205;DHT22;6667;52.634;9.226;2023-06-10T16:34:22;29.20;99.90
13205;DHT22;6667;52.634;9.226;2023-06-10T16:36:50;29.00;99.90
13205;DHT22;6667;52.634;9.226;2023-06-10T16:39:17;28.90;99.90
13205;DHT22;6667;52.634;9.226;2023-06-10T16:41:45;28.90;99.90
13205;DHT22;6667;52.634;9.226;2023-06-10T16:44:12;28.80;99.90
13205;DHT22;6667;52.634;9.226;2023-06-10T16:46:42;28.70;99.90
13205;DHT22;6667;52.634;9.226;2023-06-10T16:49:09;28.60;99.90
13205;DHT22;6667;52.634;9.226;2023-06-10T16:51:36;28.60;99.90
13205;DHT22;6667;52.634;9.226;2023-06-10T16:54:06;28.70;99.90
13205;DHT22;6667;52.634;9.226;2023-06-10T16:56:35;28.60;99.90
13205;DHT22;6667;52.634;9.226;2023-06-10T16:59:02;28.40;99.90
13205;DHT22;6667;52.634;9.226;2023-06-10T17:01:32;28.30;99.90
13205;DHT22;6667;52.634;9.226;2023-06-10T17:04:14;28.40;99.90
13205;DHT22;6667;52.634;9.226;2023-06-10T17:06:43;28.40;99.90
13205;DHT22;6667;52.634;9.226;2023-06-10T17:09:12;28.50;99.90
13205;DHT22;6667;52.634;9.226;2023-06-10T17:11:39;28.40;99.90
13205;DHT22;6667;52.634;9.226;2023-06-10T17:14:06;28.40;99.90
13205;DHT22;6667;52.634;9.226;2023-06-10T17:16:33;28.30;99.90
13205;DHT22;6667;52.634;9.226;2023-06-10T17:19:00;28.30;99.90
13205;DHT22;6667;52.634;9.226;2023-06-10T17:21:27;28.30;99.90
13205;DHT22;6667;52.634;9.226;2023-06-10T17:23:54;28.30;99.90
13205;DHT22;6667;52.634;9.226;2023-06-10T17:26:23;28.30;99.90
13205;DHT22;6667;52.634;9.226;2023-06-10T17:28:50;28.30;99.90
13205;DHT22;6667;52.634;9.226;2023-06-10T17:31:17;28.30;99.90
13205;DHT22;6667;52.634;9.226;2023-06-10T17:33:44;28.30;99.90
13205;DHT22;6667;52.634;9.226;2023-06-10T17:36:11;28.40;99.90
13205;DHT22;6667;52.634;9.226;2023-06-10T17:38:41;28.40;99.90
13205;DHT22;6667;52.634;9.226;2023-06-10T17:41:08;28.30;99.90
13205;DHT22;6667;52.634;9.226;2023-06-10T17:43:37;28.30;99.90
13205;DHT22;6667;52.634;9.226;2023-06-10T17:46:04;28.30;99.90
13205;DHT22;6667;52.634;9.226;2023-06-10T17:48:31;28.20;99.90
13205;DHT22;6667;52.634;9.226;2023-06-10T17:50:59;28.10;99.90
13205;DHT22;6667;52.634;9.226;2023-06-10T17:53:26;28.10;99.90
13205;DHT22;6667;52.634;9.226;2023-06-10T17:55:53;28.00;99.90
13205;DHT22;6667;52.634;9.226;2023-06-10T17:58:20;28.00;99.90
13205;DHT22;6667;52.634;9.226;2023-06-10T18:00:50;27.90;99.90
13205;DHT22;6667;52.634;9.226;2023-06-10T18:03:18;27.90;99.90
13205;DHT22;6667;52.634;9.226;2023-06-10T18:05:52;27.80;99.90
13205;DHT22;6667;52.634;9.226;2023-06-10T18:08:23;27.70;99.90
13205;DHT22;6667;52.634;9.226;2023-06-10T18:10:53;27.70;99.90
13205;DHT22;6667;52.634;9.226;2023-06-10T18:13:23;27.60;99.90
13205;DHT22;6667;52.634;9.226;2023-06-10T18:15:51;27.20;99.90
13205;DHT22;6667;52.634;9.226;2023-06-10T18:18:21;27.10;99.90
13205;DHT22;6667;52.634;9.226;2023-06-10T18:20:48;26.70;99.90
13205;DHT22;6667;52.634;9.226;2023-06-10T18:23:16;26.60;99.90
13205;DHT22;6667;52.634;9.226;2023-06-10T18:25:45;26.50;99.90
13205;DHT22;6667;52.634;9.226;2023-06-10T18:28:13;26.30;99.90
13205;DHT22;6667;52.634;9.226;2023-06-10T18:30:40;26.10;99.90
13205;DHT22;6667;52.634;9.226;2023-06-10T18:33:08;26.00;99.90
13205;DHT22;6667;52.634;9.226;2023-06-10T18:35:35;25.70;99.90
13205;DHT22;6667;52.634;9.226;2023-06-10T18:38:04;25.30;99.90
13205;DHT22;6667;52.634;9.226;2023-06-10T18:40:30;25.10;99.90
13205;DHT22;6667;52.634;9.226;2023-06-10T18:42:57;24.90;99.90
13205;DHT22;6667;52.634;9.226;2023-06-10T18:45:24;24.80;99.90
13205;DHT22;6667;52.634;9.226;2023-06-10T18:47:52;24.60;99.90
13205;DHT22;6667;52.634;9.226;2023-06-10T18:50:22;24.40;99.90
13205;DHT22;6667;52.634;9.226;2023-06-10T18:52:49;24.20;99.90
13205;DHT22;6667;52.634;9.226;2023-06-10T18:55:16;24.10;99.90
13205;DHT22;6667;52.634;9.226;2023-06-10T18:57:42;24.00;99.90
13205;DHT22;6667;52.634;9.226;2023-06-10T19:00:10;24.00;99.90
13205;DHT22;6667;52.634;9.226;2023-06-10T19:02:37;24.00;99.90
13205;DHT22;6667;52.634;9.226;2023-06-10T19:05:07;23.90;99.90
13205;DHT22;6667;52.634;9.226;2023-06-10T19:07:36;23.80;99.90
13205;DHT22;6667;52.634;9.226;2023-06-10T19:10:03;23.80;99.90
13205;DHT22;6667;52.634;9.226;2023-06-10T19:12:31;23.70;99.90
13205;DHT22;6667;52.634;9.226;2023-06-10T19:14:57;23.70;99.90
13205;DHT22;6667;52.634;9.226;2023-06-10T19:17:25;23.60;99.90
13205;DHT22;6667;52.634;9.226;2023-06-10T19:19:52;23.60;99.90
13205;DHT22;6667;52.634;9.226;2023-06-10T19:22:19;23.60;99.90
13205;DHT22;6667;52.634;9.226;2023-06-10T19:24:58;23.60;99.90
13205;DHT22;6667;52.634;9.226;2023-06-10T19:27:25;23.60;99.90
13205;DHT22;6667;52.634;9.226;2023-06-10T19:29:52;23.60;99.90
13205;DHT22;6667;52.634;9.226;2023-06-10T19:32:18;23.60;99.90
13205;DHT22;6667;52.634;9.226;2023-06-10T19:34:45;23.70;99.90
13205;DHT22;6667;52.634;9.226;2023-06-10T19:37:12;23.60;99.90
13205;DHT22;6667;52.634;9.226;2023-06-10T19:39:38;23.60;99.90
13205;DHT22;6667;52.634;9.226;2023-06-10T19:42:07;23.60;99.90
13205;DHT22;6667;52.634;9.226;2023-06-10T19:44:33;23.40;99.90
13205;DHT22;6667;52.634;9.226;2023-06-10T19:47:00;23.40;99.90
13205;DHT22;6667;52.634;9.226;2023-06-10T19:49:27;23.40;99.90
13205;DHT22;6667;52.634;9.226;2023-06-10T19:51:54;23.40;99.90
13205;DHT22;6667;52.634;9.226;2023-06-10T19:54:20;23.40;99.90
13205;DHT22;6667;52.634;9.226;2023-06-10T19:56:47;23.50;99.90
13205;DHT22;6667;52.634;9.226;2023-06-10T19:59:15;23.50;99.90
13205;DHT22;6667;52.634;9.226;2023-06-10T20:01:42;23.60;99.90
13205;DHT22;6667;52.634;9.226;2023-06-10T20:04:08;23.60;99.90
13205;DHT22;6667;52.634;9.226;2023-06-10T20:06:35;23.60;99.90
13205;DHT22;6667;52.634;9.226;2023-06-10T20:09:01;23.60;99.90
13205;DHT22;6667;52.634;9.226;2023-06-10T20:11:28;23.60;99.90
13205;DHT22;6667;52.634;9.226;2023-06-10T20:13:55;23.50;99.90
13205;DHT22;6667;52.634;9.226;2023-06-10T20:16:24;23.40;99.90
13205;DHT22;6667;52.634;9.226;2023-06-10T20:18:51;23.40;99.90
13205;DHT22;6667;52.634;9.226;2023-06-10T20:21:18;23.30;99.90
13205;DHT22;6667;52.634;9.226;2023-06-10T20:23:45;23.20;99.90
13205;DHT22;6667;52.634;9.226;2023-06-10T20:26:12;23.10;99.90
13205;DHT22;6667;52.634;9.226;2023-06-10T20:28:38;22.80;99.90
13205;DHT22;6667;52.634;9.226;2023-06-10T20:31:05;22.80;99.90
13205;DHT22;6667;52.634;9.226;2023-06-10T20:33:33;22.70;99.90
13205;DHT22;6667;52.634;9.226;2023-06-10T20:36:00;22.70;99.90
13205;DHT22;6667;52.634;9.226;2023-06-10T20:38:27;22.60;99.90
13205;DHT22;6667;52.634;9.226;2023-06-10T20:40:57;22.60;99.90
13205;DHT22;6667;52.634;9.226;2023-06-10T20:43:24;22.60;99.90
13205;DHT22;6667;52.634;9.226;2023-06-10T20:45:51;22.50;99.90
13205;DHT22;6667;52.634;9.226;2023-06-10T20:48:17;22.30;99.90
13205;DHT22;6667;52.634;9.226;2023-06-10T20:50:46;22.30;99.90
13205;DHT22;6667;52.634;9.226;2023-06-10T20:53:13;22.20;99.90
13205;DHT22;6667;52.634;9.226;2023-06-10T20:55:40;22.20;99.90
13205;DHT22;6667;52.634;9.226;2023-06-10T20:58:07;22.10;99.90
13205;DHT22;6667;52.634;9.226;2023-06-10T21:00:34;22.00;99.90
13205;DHT22;6667;52.634;9.226;2023-06-10T21:03:00;21.90;99.90
13205;DHT22;6667;52.634;9.226;2023-06-10T21:05:27;21.90;99.90
13205;DHT22;6667;52.634;9.226;2023-06-10T21:07:55;21.80;99.90
13205;DHT22;6667;52.634;9.226;2023-06-10T21:10:22;21.80;99.90
13205;DHT22;6667;52.634;9.226;2023-06-10T21:12:49;21.80;99.90
13205;DHT22;6667;52.634;9.226;2023-06-10T21:15:16;21.80;99.90
13205;DHT22;6667;52.634;9.226;2023-06-10T21:17:43;21.70;99.90
13205;DHT22;6667;52.634;9.226;2023-06-10T21:20:11;21.60;99.90
13205;DHT22;6667;52.634;9.226;2023-06-10T21:22:39;21.60;99.90
13205;DHT22;6667;52.634;9.226;2023-06-10T21:25:08;21.50;99.90
13205;DHT22;6667;52.634;9.226;2023-06-10T21:27:35;21.40;99.90
13205;DHT22;6667;52.634;9.226;2023-06-10T21:30:02;21.40;99.90
13205;DHT22;6667;52.634;9.226;2023-06-10T21:32:29;21.40;99.90
13205;DHT22;6667;52.634;9.226;2023-06-10T21:34:57;21.30;99.90
13205;DHT22;6667;52.634;9.226;2023-06-10T21:37:24;21.20;99.90
13205;DHT22;6667;52.634;9.226;2023-06-10T21:39:50;21.20;99.90
13205;DHT22;6667;52.634;9.226;2023-06-10T21:42:18;21.20;99.90
13205;DHT22;6667;52.634;9.226;2023-06-10T21:44:45;21.20;99.90
13205;DHT22;6667;52.634;9.226;2023-06-10T21:47:12;21.20;99.90
13205;DHT22;6667;52.634;9.226;2023-06-10T21:49:39;21.00;99.90
13205;DHT22;6667;52.634;9.226;2023-06-10T21:52:06;21.00;99.90
13205;DHT22;6667;52.634;9.226;2023-06-10T21:54:33;21.00;99.90
13205;DHT22;6667;52.634;9.226;2023-06-10T21:57:01;21.00;99.90
13205;DHT22;6667;52.634;9.226;2023-06-10T21:59:29;21.00;99.90